Monday, June 25, 2018, 12:24 AM EDT
Back to Local

KSFZ, Pawtucket, North Central State Airport

Location: Smithfield, RI, United States Lat: 41.917
Local Time: 12:24 AM EDT ( 4:24 GMT) Lon: -71.5
Time Zone: US/Eastern Elev: 439 ft

Show me the last for .
Show Decoded

2018-06-24 23:12 METAR KSFZ 250312Z AUTO 00000KT 3SM BR BKN003 OVC008 19/19 A2981 RMK AO2 CIG
                 002V007 =
2018-06-24 22:56 METAR KSFZ 250256Z AUTO 23003KT 5SM BR OVC005 19/19 A2980 RMK AO2 RAB34E55 CIG
                 003V011 SLP037 P0000 60008 T01940194 55002 =
2018-06-24 22:13 METAR KSFZ 250213Z AUTO 00000KT 4SM BR OVC005 20/19 A2978 RMK AO2 CIG 002V008 =
2018-06-24 21:56 METAR KSFZ 250156Z AUTO 00000KT 4SM BR BKN003 OVC007 20/19 A2980 RMK AO2 RAE23
                 SLP037 P0001 T02000194 =
2018-06-24 20:56 METAR KSFZ 250056Z AUTO 21003KT 4SM -RA BR OVC003 20/19 A2981 RMK AO2 LTG DSNT
                 SE AND S SLP039 P0007 T02000194 =
2018-06-24 20:48 METAR KSFZ 250048Z AUTO 00000KT 5SM -RA BR BKN003 BKN014 OVC023 20/19 A2980 RMK
                 AO2 LTG DSNT S P0006 =
2018-06-24 20:30 METAR KSFZ 250030Z AUTO VRB03KT 3SM -RA BR FEW003 BKN016 OVC070 20/19 A2981 RMK
                 AO2 LTG DSNT SW P0005 =
2018-06-24 20:26 METAR KSFZ 250026Z AUTO VRB03KT 3SM -RA BR SCT015 BKN050 OVC080 20/19 A2981 RMK
                 AO2 LTG DSNT SW P0005 =
2018-06-24 20:17 METAR KSFZ 250017Z AUTO 00000KT 2 1/2SM -RA BR SCT019 BKN050 OVC085 20/19 A2981
                 RMK AO2 LTG DSNT SW P0005 =
2018-06-24 19:56 METAR KSFZ 242356Z AUTO 00000KT 4SM RA BR FEW024 BKN060 OVC085 20/19 A2981 RMK
                 AO2 SLP040 P0006 60006 T02000194 10256 20200 50001 =
2018-06-24 18:56 METAR KSFZ 242256Z AUTO 23003KT 10SM -RA SCT044 BKN075 22/19 A2981 RMK AO2 RAB51
                 SLP041 P0000 T02170189 =
2018-06-24 17:56 METAR KSFZ 242156Z AUTO 23005KT 10SM SCT015 23/18 A2981 RMK AO2 SLP039 T02280183
                 =
2018-06-24 17:25 METAR KSFZ 242125Z AUTO 24006KT 10SM BKN017 22/19 A2981 RMK AO2 =
2018-06-24 17:04 METAR KSFZ 242104Z AUTO 23006KT 10SM SCT019 23/19 A2980 RMK AO2 =
2018-06-24 16:56 METAR KSFZ 242056Z AUTO VRB04KT 10SM BKN019 23/19 A2980 RMK AO2 SLP035 T02330189
                 58008 =
2018-06-24 16:43 METAR KSFZ 242043Z AUTO 20006KT 10SM BKN021 24/19 A2980 RMK AO2 =
2018-06-24 15:56 METAR KSFZ 241956Z AUTO 19005KT 10SM SCT023 SCT080 24/19 A2981 RMK AO2 SLP040
                 T02440189 =
2018-06-24 15:03 METAR KSFZ 241903Z AUTO VRB06KT 10SM FEW023 SCT048 OVC080 25/19 A2982 RMK AO2 =
2018-06-24 14:56 METAR KSFZ 241856Z AUTO 24007KT 10SM BKN025 BKN048 OVC080 24/19 A2982 RMK AO2
                 SLP043 T02440189 =
2018-06-24 14:53 METAR KSFZ 241853Z AUTO 25006KT 10SM SCT022 BKN028 OVC080 24/19 A2982 RMK AO2 =
2018-06-24 14:05 METAR KSFZ 241805Z AUTO VRB05KT 10SM SCT022 OVC075 24/18 A2982 RMK AO2 =
2018-06-24 13:56 METAR KSFZ 241756Z AUTO 27008KT 10SM BKN022 OVC075 25/19 A2982 RMK AO2 SLP042
                 T02500189 10250 20167 58010 =
2018-06-24 12:56 METAR KSFZ 241656Z AUTO 26007KT 10SM OVC020 24/18 A2983 RMK AO2 SLP045 T02390183
                 =
2018-06-24 11:56 METAR KSFZ 241556Z AUTO 26007KT 240V300 10SM BKN016 OVC055 23/18 A2984 RMK AO2
                 SLP051 T02280183 =
2018-06-24 10:56 METAR KSFZ 241456Z AUTO 28008KT 10SM OVC012 21/17 A2985 RMK AO2 SLP053 T02060172
                 53004 =
2018-06-24 09:56 METAR KSFZ 241356Z AUTO 26008G14KT 10SM OVC010 19/17 A2984 RMK AO2 SLP051
                 T01940167 =
2018-06-24 09:48 METAR KSFZ 241348Z AUTO 25008KT 10SM OVC010 19/17 A2984 RMK AO2 =
2018-06-24 08:56 METAR KSFZ 241256Z AUTO 25008KT 10SM OVC006 18/17 A2984 RMK AO2 SLP050 T01830167
                 =
2018-06-24 07:56 METAR KSFZ 241156Z AUTO 23005KT 10SM OVC006 17/15 A2984 RMK AO2 SLP050 T01670150
                 10167 20139 51007 =
2018-06-24 06:56 METAR KSFZ 241056Z AUTO VRB03KT 3SM BR OVC004 15/14 A2983 RMK AO2 SLP047
                 T01500144 =
2018-06-24 06:29 METAR KSFZ 241029Z AUTO 00000KT 2SM BR OVC004 14/14 A2983 RMK AO2 CIG 002V008 =
2018-06-24 06:21 METAR KSFZ 241021Z AUTO VRB03KT 3SM BR OVC004 14/14 A2983 RMK AO2 CIG 002V006 =
2018-06-24 06:14 METAR KSFZ 241014Z AUTO 00000KT 2 1/2SM BR OVC004 14/14 A2983 RMK AO2 CIG
                 002V006 =
2018-06-24 05:56 METAR KSFZ 240956Z AUTO 00000KT 1 1/2SM BR OVC004 14/14 A2983 RMK AO2 SLP048
                 T01390139 =
2018-06-24 05:47 METAR KSFZ 240947Z AUTO 00000KT 1 3/4SM BR OVC004 14/14 A2983 RMK AO2 =
2018-06-24 05:23 METAR KSFZ 240923Z AUTO 00000KT 6SM BR OVC004 14/13 A2982 RMK AO2 CIG 003V006 =
2018-06-24 05:05 METAR KSFZ 240905Z AUTO 00000KT 7SM BKN006 OVC014 14/13 A2981 RMK AO2 =
2018-06-24 04:56 METAR KSFZ 240856Z AUTO 00000KT 9SM SCT006 OVC014 14/13 A2981 RMK AO2 SLP042
                 T01390133 56005 =
2018-06-24 04:46 METAR KSFZ 240846Z AUTO 00000KT 9SM SCT004 OVC014 14/13 A2981 RMK AO2 =
2018-06-24 04:03 METAR KSFZ 240803Z AUTO 00000KT 9SM BKN004 OVC016 14/13 A2981 RMK AO2 =
2018-06-24 03:56 METAR KSFZ 240756Z AUTO 00000KT 10SM SCT004 OVC016 14/13 A2981 RMK AO2 SLP042
                 T01390133 =
2018-06-24 03:23 METAR KSFZ 240723Z AUTO 00000KT 6SM BR OVC002 14/13 A2982 RMK AO2 =
2018-06-24 03:05 METAR KSFZ 240705Z AUTO 33003KT 2 1/2SM BR OVC002 14/13 A2982 RMK AO2 =
2018-06-24 02:56 METAR KSFZ 240656Z AUTO 33003KT 1 3/4SM BR OVC002 14/14 A2982 RMK AO2 SLP045
                 T01390139 =
2018-06-24 02:31 METAR KSFZ 240631Z AUTO 33003KT 1 1/2SM BR OVC002 14/13 A2983 RMK AO2 =
2018-06-24 01:56 METAR KSFZ 240556Z AUTO 01003KT 4SM BR OVC002 14/14 A2983 RMK AO2 SLP047 60000
                 T01390139 10144 20139 58004 =
2018-06-24 01:28 METAR KSFZ 240528Z AUTO 00000KT 2 1/2SM BR OVC002 14/13 A2984 RMK AO2 =
2018-06-24 00:56 METAR KSFZ 240456Z AUTO 31003KT 1 1/2SM BR OVC002 14/13 A2985 RMK AO2 SLP054
                 T01390133 401780128 =
2018-06-24 00:45 METAR KSFZ 240445Z AUTO 00000KT 1 3/4SM BR OVC002 14/13 A2984 RMK AO2 =

Support USWX by starting your Amazon purchase here.